sensor_id;sensor_type;location;lat;lon;timestamp;P1;durP1;ratioP1;P2;durP2;ratioP2
72584;SDS011;60618;40.084;32.908;2022-10-16T00:00:48;8.90;;;4.97;;
72584;SDS011;60618;40.084;32.908;2022-10-16T00:03:15;11.05;;;6.05;;
72584;SDS011;60618;40.084;32.908;2022-10-16T00:05:42;10.30;;;5.45;;
72584;SDS011;60618;40.084;32.908;2022-10-16T00:08:10;9.38;;;5.47;;
72584;SDS011;60618;40.084;32.908;2022-10-16T00:10:38;10.93;;;5.72;;
72584;SDS011;60618;40.084;32.908;2022-10-16T00:13:05;9.23;;;5.20;;
72584;SDS011;60618;40.084;32.908;2022-10-16T00:15:33;11.05;;;5.60;;
72584;SDS011;60618;40.084;32.908;2022-10-16T00:18:03;11.52;;;5.28;;
72584;SDS011;60618;40.084;32.908;2022-10-16T00:20:33;8.57;;;5.13;;
72584;SDS011;60618;40.084;32.908;2022-10-16T00:23:01;12.27;;;5.80;;
72584;SDS011;60618;40.084;32.908;2022-10-16T00:25:27;10.60;;;5.50;;
72584;SDS011;60618;40.084;32.908;2022-10-16T00:27:54;10.63;;;5.20;;
72584;SDS011;60618;40.084;32.908;2022-10-16T00:30:21;8.98;;;5.30;;
72584;SDS011;60618;40.084;32.908;2022-10-16T00:32:48;9.02;;;4.90;;
72584;SDS011;60618;40.084;32.908;2022-10-16T00:35:15;9.45;;;5.28;;
72584;SDS011;60618;40.084;32.908;2022-10-16T00:37:42;9.77;;;5.03;;
72584;SDS011;60618;40.084;32.908;2022-10-16T00:40:09;9.18;;;4.90;;
72584;SDS011;60618;40.084;32.908;2022-10-16T00:42:36;10.55;;;5.00;;
72584;SDS011;60618;40.084;32.908;2022-10-16T00:45:03;8.60;;;5.00;;
72584;SDS011;60618;40.084;32.908;2022-10-16T00:47:32;10.38;;;4.97;;
72584;SDS011;60618;40.084;32.908;2022-10-16T00:50:14;9.07;;;5.00;;
72584;SDS011;60618;40.084;32.908;2022-10-16T00:52:44;9.15;;;5.00;;
72584;SDS011;60618;40.084;32.908;2022-10-16T00:55:13;9.90;;;4.82;;
72584;SDS011;60618;40.084;32.908;2022-10-16T00:57:40;8.85;;;5.00;;
72584;SDS011;60618;40.084;32.908;2022-10-16T01:00:09;10.75;;;5.50;;
72584;SDS011;60618;40.084;32.908;2022-10-16T01:02:37;10.40;;;5.30;;
72584;SDS011;60618;40.084;32.908;2022-10-16T01:05:04;8.70;;;4.82;;
72584;SDS011;60618;40.084;32.908;2022-10-16T01:07:45;10.07;;;5.30;;
72584;SDS011;60618;40.084;32.908;2022-10-16T01:10:20;9.38;;;5.40;;
72584;SDS011;60618;40.084;32.908;2022-10-16T01:21:29;9.65;;;5.13;;
72584;SDS011;60618;40.084;32.908;2022-10-16T01:24:06;10.82;;;5.15;;
72584;SDS011;60618;40.084;32.908;2022-10-16T01:29:25;10.33;;;5.27;;
72584;SDS011;60618;40.084;32.908;2022-10-16T01:31:58;9.55;;;5.30;;
72584;SDS011;60618;40.084;32.908;2022-10-16T01:34:30;10.57;;;5.43;;
72584;SDS011;60618;40.084;32.908;2022-10-16T01:37:05;11.07;;;5.22;;
72584;SDS011;60618;40.084;32.908;2022-10-16T01:39:38;8.40;;;4.80;;
72584;SDS011;60618;40.084;32.908;2022-10-16T01:42:31;9.13;;;5.10;;
72584;SDS011;60618;40.084;32.908;2022-10-16T01:45:00;10.75;;;4.97;;
72584;SDS011;60618;40.084;32.908;2022-10-16T01:47:29;8.95;;;5.15;;
72584;SDS011;60618;40.084;32.908;2022-10-16T01:49:57;9.35;;;5.18;;
72584;SDS011;60618;40.084;32.908;2022-10-16T01:52:26;9.95;;;5.15;;
72584;SDS011;60618;40.084;32.908;2022-10-16T01:54:56;8.63;;;4.80;;
72584;SDS011;60618;40.084;32.908;2022-10-16T01:57:24;8.40;;;4.72;;
72584;SDS011;60618;40.084;32.908;2022-10-16T01:59:55;8.48;;;4.60;;
72584;SDS011;60618;40.084;32.908;2022-10-16T02:02:24;11.02;;;5.03;;
72584;SDS011;60618;40.084;32.908;2022-10-16T02:04:57;9.27;;;4.88;;
72584;SDS011;60618;40.084;32.908;2022-10-16T02:07:28;8.40;;;5.10;;
72584;SDS011;60618;40.084;32.908;2022-10-16T02:09:55;9.55;;;4.80;;
72584;SDS011;60618;40.084;32.908;2022-10-16T02:12:25;9.27;;;5.28;;
72584;SDS011;60618;40.084;32.908;2022-10-16T02:14:57;10.68;;;5.20;;
72584;SDS011;60618;40.084;32.908;2022-10-16T02:17:25;9.63;;;5.35;;
72584;SDS011;60618;40.084;32.908;2022-10-16T02:19:52;9.33;;;4.90;;
72584;SDS011;60618;40.084;32.908;2022-10-16T02:22:42;8.77;;;5.30;;
72584;SDS011;60618;40.084;32.908;2022-10-16T02:25:22;9.98;;;5.68;;
72584;SDS011;60618;40.084;32.908;2022-10-16T02:27:54;9.95;;;5.18;;
72584;SDS011;60618;40.084;32.908;2022-10-16T02:31:01;12.52;;;5.40;;
72584;SDS011;60618;40.084;32.908;2022-10-16T02:33:31;9.93;;;5.93;;
72584;SDS011;60618;40.084;32.908;2022-10-16T02:36:00;11.30;;;5.88;;
72584;SDS011;60618;40.084;32.908;2022-10-16T02:38:27;12.05;;;5.57;;
72584;SDS011;60618;40.084;32.908;2022-10-16T02:40:55;12.32;;;5.97;;
72584;SDS011;60618;40.084;32.908;2022-10-16T02:43:23;11.10;;;5.70;;
72584;SDS011;60618;40.084;32.908;2022-10-16T02:45:51;10.57;;;6.03;;
72584;SDS011;60618;40.084;32.908;2022-10-16T02:48:18;10.32;;;5.72;;
72584;SDS011;60618;40.084;32.908;2022-10-16T02:50:45;11.00;;;5.82;;
72584;SDS011;60618;40.084;32.908;2022-10-16T02:53:12;9.88;;;5.40;;
72584;SDS011;60618;40.084;32.908;2022-10-16T02:55:39;10.10;;;5.80;;
72584;SDS011;60618;40.084;32.908;2022-10-16T02:58:06;10.07;;;5.80;;
72584;SDS011;60618;40.084;32.908;2022-10-16T03:00:32;11.15;;;5.97;;
72584;SDS011;60618;40.084;32.908;2022-10-16T03:03:00;9.18;;;5.40;;
72584;SDS011;60618;40.084;32.908;2022-10-16T03:05:27;10.27;;;5.97;;
72584;SDS011;60618;40.084;32.908;2022-10-16T03:07:54;12.38;;;6.28;;
72584;SDS011;60618;40.084;32.908;2022-10-16T03:10:21;9.80;;;5.50;;
72584;SDS011;60618;40.084;32.908;2022-10-16T03:12:47;10.75;;;5.97;;
72584;SDS011;60618;40.084;32.908;2022-10-16T03:15:14;11.50;;;6.25;;
72584;SDS011;60618;40.084;32.908;2022-10-16T03:17:41;11.00;;;5.82;;
72584;SDS011;60618;40.084;32.908;2022-10-16T03:20:08;13.07;;;6.30;;
72584;SDS011;60618;40.084;32.908;2022-10-16T03:22:36;10.87;;;5.90;;
72584;SDS011;60618;40.084;32.908;2022-10-16T03:25:03;11.40;;;6.35;;
72584;SDS011;60618;40.084;32.908;2022-10-16T03:27:30;11.95;;;6.10;;
72584;SDS011;60618;40.084;32.908;2022-10-16T03:29:57;10.90;;;6.07;;
72584;SDS011;60618;40.084;32.908;2022-10-16T03:32:24;11.23;;;6.20;;
72584;SDS011;60618;40.084;32.908;2022-10-16T03:34:51;11.50;;;6.23;;
72584;SDS011;60618;40.084;32.908;2022-10-16T03:37:18;11.88;;;6.22;;
72584;SDS011;60618;40.084;32.908;2022-10-16T03:39:45;11.45;;;6.50;;
72584;SDS011;60618;40.084;32.908;2022-10-16T03:42:12;11.80;;;6.32;;
72584;SDS011;60618;40.084;32.908;2022-10-16T03:44:38;11.68;;;6.00;;
72584;SDS011;60618;40.084;32.908;2022-10-16T03:47:05;11.47;;;6.10;;
72584;SDS011;60618;40.084;32.908;2022-10-16T03:49:32;12.43;;;6.40;;
72584;SDS011;60618;40.084;32.908;2022-10-16T03:51:59;12.90;;;6.28;;
72584;SDS011;60618;40.084;32.908;2022-10-16T03:54:26;12.13;;;6.60;;
72584;SDS011;60618;40.084;32.908;2022-10-16T03:56:53;12.32;;;6.80;;
72584;SDS011;60618;40.084;32.908;2022-10-16T03:59:20;12.50;;;6.47;;
72584;SDS011;60618;40.084;32.908;2022-10-16T04:01:47;14.07;;;6.35;;
72584;SDS011;60618;40.084;32.908;2022-10-16T04:04:14;12.20;;;6.45;;
72584;SDS011;60618;40.084;32.908;2022-10-16T04:06:40;11.55;;;6.50;;
72584;SDS011;60618;40.084;32.908;2022-10-16T04:09:07;12.48;;;6.43;;
72584;SDS011;60618;40.084;32.908;2022-10-16T04:11:34;11.37;;;6.43;;
72584;SDS011;60618;40.084;32.908;2022-10-16T04:14:01;11.57;;;6.78;;
72584;SDS011;60618;40.084;32.908;2022-10-16T04:16:28;14.60;;;7.15;;
72584;SDS011;60618;40.084;32.908;2022-10-16T04:18:56;12.43;;;6.88;;
72584;SDS011;60618;40.084;32.908;2022-10-16T04:21:23;12.15;;;6.80;;
72584;SDS011;60618;40.084;32.908;2022-10-16T04:23:50;15.67;;;7.20;;
72584;SDS011;60618;40.084;32.908;2022-10-16T04:26:17;12.65;;;6.18;;
72584;SDS011;60618;40.084;32.908;2022-10-16T04:28:44;11.75;;;6.80;;
72584;SDS011;60618;40.084;32.908;2022-10-16T04:31:11;12.07;;;6.80;;
72584;SDS011;60618;40.084;32.908;2022-10-16T04:33:38;12.82;;;6.88;;
72584;SDS011;60618;40.084;32.908;2022-10-16T04:36:05;13.47;;;6.90;;
72584;SDS011;60618;40.084;32.908;2022-10-16T04:38:33;13.57;;;6.95;;
72584;SDS011;60618;40.084;32.908;2022-10-16T04:41:00;16.05;;;6.97;;
72584;SDS011;60618;40.084;32.908;2022-10-16T04:43:26;12.23;;;6.88;;
72584;SDS011;60618;40.084;32.908;2022-10-16T04:45:53;13.38;;;7.28;;
72584;SDS011;60618;40.084;32.908;2022-10-16T04:48:20;12.37;;;6.70;;
72584;SDS011;60618;40.084;32.908;2022-10-16T04:50:47;11.18;;;6.60;;
72584;SDS011;60618;40.084;32.908;2022-10-16T04:53:20;12.45;;;6.85;;
72584;SDS011;60618;40.084;32.908;2022-10-16T04:55:47;13.05;;;7.32;;
72584;SDS011;60618;40.084;32.908;2022-10-16T04:58:15;15.07;;;7.40;;
72584;SDS011;60618;40.084;32.908;2022-10-16T05:00:42;12.87;;;6.70;;
72584;SDS011;60618;40.084;32.908;2022-10-16T05:03:09;13.82;;;7.00;;
72584;SDS011;60618;40.084;32.908;2022-10-16T05:05:36;12.05;;;7.00;;
72584;SDS011;60618;40.084;32.908;2022-10-16T05:08:09;12.52;;;7.10;;
72584;SDS011;60618;40.084;32.908;2022-10-16T05:10:40;13.25;;;7.10;;
72584;SDS011;60618;40.084;32.908;2022-10-16T05:13:09;13.30;;;7.03;;
72584;SDS011;60618;40.084;32.908;2022-10-16T05:15:36;13.13;;;6.90;;
72584;SDS011;60618;40.084;32.908;2022-10-16T05:18:03;13.70;;;7.55;;
72584;SDS011;60618;40.084;32.908;2022-10-16T05:20:30;12.77;;;7.38;;
72584;SDS011;60618;40.084;32.908;2022-10-16T05:22:57;11.48;;;6.53;;
72584;SDS011;60618;40.084;32.908;2022-10-16T05:25:24;10.93;;;6.43;;
72584;SDS011;60618;40.084;32.908;2022-10-16T05:27:52;11.60;;;6.80;;
72584;SDS011;60618;40.084;32.908;2022-10-16T05:30:19;12.85;;;6.85;;
72584;SDS011;60618;40.084;32.908;2022-10-16T05:32:49;13.38;;;7.25;;
72584;SDS011;60618;40.084;32.908;2022-10-16T05:35:18;12.98;;;6.93;;
72584;SDS011;60618;40.084;32.908;2022-10-16T05:37:45;12.40;;;7.17;;
72584;SDS011;60618;40.084;32.908;2022-10-16T05:40:13;13.27;;;6.35;;
72584;SDS011;60618;40.084;32.908;2022-10-16T05:42:41;12.20;;;6.72;;
72584;SDS011;60618;40.084;32.908;2022-10-16T05:45:09;13.27;;;6.63;;
72584;SDS011;60618;40.084;32.908;2022-10-16T05:47:37;11.10;;;5.88;;
72584;SDS011;60618;40.084;32.908;2022-10-16T05:50:04;12.33;;;6.03;;
72584;SDS011;60618;40.084;32.908;2022-10-16T05:52:31;11.23;;;6.10;;
72584;SDS011;60618;40.084;32.908;2022-10-16T05:54:58;12.25;;;6.22;;
72584;SDS011;60618;40.084;32.908;2022-10-16T05:57:25;12.18;;;6.50;;
72584;SDS011;60618;40.084;32.908;2022-10-16T05:59:52;13.02;;;6.78;;
72584;SDS011;60618;40.084;32.908;2022-10-16T06:02:19;11.30;;;6.40;;
72584;SDS011;60618;40.084;32.908;2022-10-16T06:04:46;11.80;;;6.15;;
72584;SDS011;60618;40.084;32.908;2022-10-16T06:07:17;11.75;;;6.40;;
72584;SDS011;60618;40.084;32.908;2022-10-16T06:09:47;10.55;;;5.97;;
72584;SDS011;60618;40.084;32.908;2022-10-16T06:12:17;11.93;;;5.72;;
72584;SDS011;60618;40.084;32.908;2022-10-16T06:14:47;10.00;;;5.97;;
72584;SDS011;60618;40.084;32.908;2022-10-16T06:17:14;12.35;;;6.72;;
72584;SDS011;60618;40.084;32.908;2022-10-16T06:19:42;11.93;;;6.88;;
72584;SDS011;60618;40.084;32.908;2022-10-16T06:22:08;12.20;;;6.15;;
72584;SDS011;60618;40.084;32.908;2022-10-16T06:24:35;14.43;;;7.05;;
72584;SDS011;60618;40.084;32.908;2022-10-16T06:27:03;12.07;;;6.33;;
72584;SDS011;60618;40.084;32.908;2022-10-16T06:29:30;11.48;;;6.40;;
72584;SDS011;60618;40.084;32.908;2022-10-16T06:31:57;11.73;;;6.93;;
72584;SDS011;60618;40.084;32.908;2022-10-16T06:34:24;11.57;;;6.65;;
72584;SDS011;60618;40.084;32.908;2022-10-16T06:36:51;11.50;;;6.50;;
72584;SDS011;60618;40.084;32.908;2022-10-16T06:39:18;12.40;;;6.40;;
72584;SDS011;60618;40.084;32.908;2022-10-16T06:41:45;14.02;;;6.72;;
72584;SDS011;60618;40.084;32.908;2022-10-16T06:44:12;11.57;;;6.20;;
72584;SDS011;60618;40.084;32.908;2022-10-16T06:46:38;11.43;;;6.63;;
72584;SDS011;60618;40.084;32.908;2022-10-16T06:49:05;12.07;;;6.03;;
72584;SDS011;60618;40.084;32.908;2022-10-16T06:51:32;11.33;;;6.13;;
72584;SDS011;60618;40.084;32.908;2022-10-16T06:54:04;11.32;;;6.53;;
72584;SDS011;60618;40.084;32.908;2022-10-16T06:56:31;12.13;;;6.90;;
72584;SDS011;60618;40.084;32.908;2022-10-16T06:58:59;12.80;;;6.60;;
72584;SDS011;60618;40.084;32.908;2022-10-16T07:01:26;10.88;;;6.38;;
72584;SDS011;60618;40.084;32.908;2022-10-16T07:03:54;11.40;;;6.53;;
72584;SDS011;60618;40.084;32.908;2022-10-16T07:06:22;13.02;;;6.93;;
72584;SDS011;60618;40.084;32.908;2022-10-16T07:08:50;11.23;;;6.60;;
72584;SDS011;60618;40.084;32.908;2022-10-16T07:11:21;11.52;;;6.75;;
72584;SDS011;60618;40.084;32.908;2022-10-16T07:13:50;12.95;;;6.38;;
72584;SDS011;60618;40.084;32.908;2022-10-16T07:16:22;12.13;;;6.83;;
72584;SDS011;60618;40.084;32.908;2022-10-16T07:18:50;12.02;;;6.63;;
72584;SDS011;60618;40.084;32.908;2022-10-16T07:21:21;10.15;;;6.00;;
72584;SDS011;60618;40.084;32.908;2022-10-16T07:23:52;11.98;;;6.28;;
72584;SDS011;60618;40.084;32.908;2022-10-16T07:26:20;11.75;;;6.78;;
72584;SDS011;60618;40.084;32.908;2022-10-16T07:28:49;11.37;;;6.53;;
72584;SDS011;60618;40.084;32.908;2022-10-16T07:31:17;12.02;;;6.78;;
72584;SDS011;60618;40.084;32.908;2022-10-16T07:33:45;14.30;;;7.00;;
72584;SDS011;60618;40.084;32.908;2022-10-16T07:36:14;11.10;;;6.50;;
72584;SDS011;60618;40.084;32.908;2022-10-16T07:38:42;11.35;;;6.78;;
72584;SDS011;60618;40.084;32.908;2022-10-16T07:41:16;11.83;;;6.50;;
72584;SDS011;60618;40.084;32.908;2022-10-16T07:43:45;11.48;;;6.82;;
72584;SDS011;60618;40.084;32.908;2022-10-16T07:46:13;10.95;;;6.22;;
72584;SDS011;60618;40.084;32.908;2022-10-16T07:48:41;10.63;;;6.30;;
72584;SDS011;60618;40.084;32.908;2022-10-16T07:51:08;11.82;;;6.65;;
72584;SDS011;60618;40.084;32.908;2022-10-16T07:53:35;10.87;;;5.93;;
72584;SDS011;60618;40.084;32.908;2022-10-16T07:56:03;10.48;;;5.93;;
72584;SDS011;60618;40.084;32.908;2022-10-16T07:58:32;10.35;;;5.72;;
72584;SDS011;60618;40.084;32.908;2022-10-16T08:01:03;10.30;;;5.90;;
72584;SDS011;60618;40.084;32.908;2022-10-16T08:03:31;11.40;;;6.43;;
72584;SDS011;60618;40.084;32.908;2022-10-16T08:05:59;11.20;;;6.20;;
72584;SDS011;60618;40.084;32.908;2022-10-16T08:08:26;13.02;;;7.40;;
72584;SDS011;60618;40.084;32.908;2022-10-16T08:10:54;12.18;;;6.95;;
72584;SDS011;60618;40.084;32.908;2022-10-16T08:13:21;11.82;;;7.00;;
72584;SDS011;60618;40.084;32.908;2022-10-16T08:15:48;12.20;;;7.03;;
72584;SDS011;60618;40.084;32.908;2022-10-16T08:18:15;10.67;;;6.20;;
72584;SDS011;60618;40.084;32.908;2022-10-16T08:20:42;9.52;;;5.82;;
72584;SDS011;60618;40.084;32.908;2022-10-16T08:23:12;10.75;;;6.25;;
72584;SDS011;60618;40.084;32.908;2022-10-16T08:25:39;11.20;;;5.85;;
72584;SDS011;60618;40.084;32.908;2022-10-16T08:28:08;10.80;;;6.20;;
72584;SDS011;60618;40.084;32.908;2022-10-16T08:30:36;11.57;;;5.90;;
72584;SDS011;60618;40.084;32.908;2022-10-16T08:33:03;9.68;;;5.60;;
72584;SDS011;60618;40.084;32.908;2022-10-16T08:35:30;9.98;;;5.60;;
72584;SDS011;60618;40.084;32.908;2022-10-16T08:38:01;10.98;;;5.88;;
72584;SDS011;60618;40.084;32.908;2022-10-16T08:40:30;10.32;;;5.78;;
72584;SDS011;60618;40.084;32.908;2022-10-16T08:48:31;10.60;;;5.57;;
72584;SDS011;60618;40.084;32.908;2022-10-16T08:51:10;10.23;;;5.60;;
72584;SDS011;60618;40.084;32.908;2022-10-16T08:53:46;11.13;;;6.07;;
72584;SDS011;60618;40.084;32.908;2022-10-16T08:56:18;10.17;;;5.63;;
72584;SDS011;60618;40.084;32.908;2022-10-16T08:58:46;9.43;;;5.30;;
72584;SDS011;60618;40.084;32.908;2022-10-16T09:01:15;9.50;;;5.20;;
72584;SDS011;60618;40.084;32.908;2022-10-16T09:12:09;8.45;;;5.47;;
72584;SDS011;60618;40.084;32.908;2022-10-16T09:19:51;9.13;;;5.50;;
72584;SDS011;60618;40.084;32.908;2022-10-16T09:22:25;10.43;;;5.87;;
72584;SDS011;60618;40.084;32.908;2022-10-16T09:24:59;9.60;;;5.75;;
72584;SDS011;60618;40.084;32.908;2022-10-16T09:27:36;10.27;;;5.70;;
72584;SDS011;60618;40.084;32.908;2022-10-16T09:30:17;10.93;;;6.50;;
72584;SDS011;60618;40.084;32.908;2022-10-16T09:32:48;9.35;;;6.05;;
72584;SDS011;60618;40.084;32.908;2022-10-16T09:35:22;10.53;;;6.07;;
72584;SDS011;60618;40.084;32.908;2022-10-16T09:37:54;10.63;;;6.70;;
72584;SDS011;60618;40.084;32.908;2022-10-16T09:40:25;11.10;;;6.65;;
72584;SDS011;60618;40.084;32.908;2022-10-16T09:42:57;13.93;;;7.47;;
72584;SDS011;60618;40.084;32.908;2022-10-16T09:45:34;12.15;;;7.25;;
72584;SDS011;60618;40.084;32.908;2022-10-16T09:48:08;11.90;;;7.07;;
72584;SDS011;60618;40.084;32.908;2022-10-16T09:50:37;12.00;;;6.68;;
72584;SDS011;60618;40.084;32.908;2022-10-16T09:53:11;11.85;;;6.85;;
72584;SDS011;60618;40.084;32.908;2022-10-16T09:55:52;11.30;;;6.68;;
72584;SDS011;60618;40.084;32.908;2022-10-16T09:58:23;10.85;;;6.25;;
72584;SDS011;60618;40.084;32.908;2022-10-16T10:00:51;11.17;;;6.60;;
72584;SDS011;60618;40.084;32.908;2022-10-16T10:03:36;11.43;;;6.60;;
72584;SDS011;60618;40.084;32.908;2022-10-16T10:06:27;11.80;;;6.65;;
72584;SDS011;60618;40.084;32.908;2022-10-16T10:09:04;12.02;;;6.15;;
72584;SDS011;60618;40.084;32.908;2022-10-16T10:11:44;10.52;;;6.45;;
72584;SDS011;60618;40.084;32.908;2022-10-16T10:19:40;10.05;;;6.20;;
72584;SDS011;60618;40.084;32.908;2022-10-16T10:22:19;12.63;;;6.43;;
72584;SDS011;60618;40.084;32.908;2022-10-16T10:24:56;12.18;;;6.43;;
72584;SDS011;60618;40.084;32.908;2022-10-16T10:27:36;10.40;;;6.40;;
72584;SDS011;60618;40.084;32.908;2022-10-16T10:30:15;12.38;;;6.47;;
72584;SDS011;60618;40.084;32.908;2022-10-16T10:39:09;11.45;;;6.35;;
72584;SDS011;60618;40.084;32.908;2022-10-16T10:53:06;10.13;;;5.78;;
72584;SDS011;60618;40.084;32.908;2022-10-16T10:56:03;11.07;;;6.33;;
72584;SDS011;60618;40.084;32.908;2022-10-16T10:58:57;9.98;;;6.30;;
72584;SDS011;60618;40.084;32.908;2022-10-16T11:07:51;10.57;;;6.28;;
72584;SDS011;60618;40.084;32.908;2022-10-16T11:09:58;11.20;;;6.23;;
72584;SDS011;60618;40.084;32.908;2022-10-16T11:12:35;10.80;;;6.53;;
72584;SDS011;60618;40.084;32.908;2022-10-16T11:15:19;10.57;;;6.47;;
72584;SDS011;60618;40.084;32.908;2022-10-16T11:17:58;9.98;;;6.32;;
72584;SDS011;60618;40.084;32.908;2022-10-16T11:20:40;10.00;;;6.25;;
72584;SDS011;60618;40.084;32.908;2022-10-16T11:23:30;11.67;;;5.90;;
72584;SDS011;60618;40.084;32.908;2022-10-16T11:26:05;11.48;;;5.65;;
72584;SDS011;60618;40.084;32.908;2022-10-16T11:28:50;11.05;;;5.90;;
72584;SDS011;60618;40.084;32.908;2022-10-16T11:33:55;10.02;;;6.40;;
72584;SDS011;60618;40.084;32.908;2022-10-16T11:36:32;12.37;;;6.80;;
72584;SDS011;60618;40.084;32.908;2022-10-16T11:47:35;13.32;;;7.25;;
72584;SDS011;60618;40.084;32.908;2022-10-16T11:50:33;10.10;;;6.37;;
72584;SDS011;60618;40.084;32.908;2022-10-16T11:53:11;10.65;;;6.35;;
72584;SDS011;60618;40.084;32.908;2022-10-16T11:55:50;10.40;;;6.10;;
72584;SDS011;60618;40.084;32.908;2022-10-16T11:58:27;10.00;;;6.03;;
72584;SDS011;60618;40.084;32.908;2022-10-16T12:06:27;11.13;;;6.70;;
72584;SDS011;60618;40.084;32.908;2022-10-16T12:09:00;11.35;;;6.40;;
72584;SDS011;60618;40.084;32.908;2022-10-16T12:16:31;9.17;;;6.03;;
72584;SDS011;60618;40.084;32.908;2022-10-16T12:19:14;9.98;;;6.32;;
72584;SDS011;60618;40.084;32.908;2022-10-16T12:21:44;11.25;;;7.05;;
72584;SDS011;60618;40.084;32.908;2022-10-16T12:27:02;11.90;;;7.15;;
72584;SDS011;60618;40.084;32.908;2022-10-16T12:29:38;12.97;;;7.60;;
72584;SDS011;60618;40.084;32.908;2022-10-16T12:32:27;12.35;;;7.50;;
72584;SDS011;60618;40.084;32.908;2022-10-16T12:35:17;13.13;;;8.43;;
72584;SDS011;60618;40.084;32.908;2022-10-16T12:37:49;12.32;;;7.25;;
72584;SDS011;60618;40.084;32.908;2022-10-16T12:40:28;12.45;;;7.45;;
72584;SDS011;60618;40.084;32.908;2022-10-16T12:43:10;12.33;;;7.70;;
72584;SDS011;60618;40.084;32.908;2022-10-16T12:46:05;13.80;;;8.03;;
72584;SDS011;60618;40.084;32.908;2022-10-16T12:48:32;14.93;;;8.02;;
72584;SDS011;60618;40.084;32.908;2022-10-16T12:51:34;14.02;;;9.10;;
72584;SDS011;60618;40.084;32.908;2022-10-16T12:54:16;18.30;;;9.80;;
72584;SDS011;60618;40.084;32.908;2022-10-16T13:11:41;14.50;;;8.27;;
72584;SDS011;60618;40.084;32.908;2022-10-16T13:20:33;17.30;;;9.10;;
72584;SDS011;60618;40.084;32.908;2022-10-16T13:28:45;14.57;;;8.80;;
72584;SDS011;60618;40.084;32.908;2022-10-16T13:31:14;15.15;;;9.32;;
72584;SDS011;60618;40.084;32.908;2022-10-16T13:33:46;16.25;;;9.02;;
72584;SDS011;60618;40.084;32.908;2022-10-16T13:36:22;13.65;;;8.23;;
72584;SDS011;60618;40.084;32.908;2022-10-16T13:44:39;14.85;;;8.77;;
72584;SDS011;60618;40.084;32.908;2022-10-16T13:47:17;14.65;;;8.73;;
72584;SDS011;60618;40.084;32.908;2022-10-16T13:49:47;15.50;;;9.15;;
72584;SDS011;60618;40.084;32.908;2022-10-16T13:52:28;17.47;;;9.40;;
72584;SDS011;60618;40.084;32.908;2022-10-16T13:54:55;15.18;;;9.48;;
72584;SDS011;60618;40.084;32.908;2022-10-16T13:57:27;14.25;;;8.82;;
72584;SDS011;60618;40.084;32.908;2022-10-16T13:59:57;15.05;;;9.07;;
72584;SDS011;60618;40.084;32.908;2022-10-16T14:02:31;15.23;;;10.05;;
72584;SDS011;60618;40.084;32.908;2022-10-16T14:05:02;15.00;;;9.37;;
72584;SDS011;60618;40.084;32.908;2022-10-16T14:07:31;17.42;;;9.68;;
72584;SDS011;60618;40.084;32.908;2022-10-16T14:10:01;16.00;;;9.32;;
72584;SDS011;60618;40.084;32.908;2022-10-16T14:12:31;15.00;;;9.65;;
72584;SDS011;60618;40.084;32.908;2022-10-16T14:15:00;16.23;;;10.20;;
72584;SDS011;60618;40.084;32.908;2022-10-16T14:17:28;16.20;;;9.73;;
72584;SDS011;60618;40.084;32.908;2022-10-16T14:20:00;18.23;;;9.88;;
72584;SDS011;60618;40.084;32.908;2022-10-16T14:22:36;16.63;;;9.95;;
72584;SDS011;60618;40.084;32.908;2022-10-16T14:28:18;16.77;;;10.20;;
72584;SDS011;60618;40.084;32.908;2022-10-16T14:30:49;15.20;;;9.10;;
72584;SDS011;60618;40.084;32.908;2022-10-16T14:33:22;17.05;;;9.52;;
72584;SDS011;60618;40.084;32.908;2022-10-16T14:36:25;18.33;;;10.20;;
72584;SDS011;60618;40.084;32.908;2022-10-16T14:38:55;15.70;;;9.25;;
72584;SDS011;60618;40.084;32.908;2022-10-16T14:41:23;16.98;;;10.35;;
72584;SDS011;60618;40.084;32.908;2022-10-16T14:43:52;16.17;;;9.23;;
72584;SDS011;60618;40.084;32.908;2022-10-16T14:46:22;18.30;;;10.40;;
72584;SDS011;60618;40.084;32.908;2022-10-16T14:49:16;17.35;;;9.68;;
72584;SDS011;60618;40.084;32.908;2022-10-16T14:51:46;15.73;;;9.43;;
72584;SDS011;60618;40.084;32.908;2022-10-16T14:54:14;13.23;;;8.50;;
72584;SDS011;60618;40.084;32.908;2022-10-16T14:59:16;15.20;;;9.05;;
72584;SDS011;60618;40.084;32.908;2022-10-16T15:01:48;15.35;;;8.68;;
72584;SDS011;60618;40.084;32.908;2022-10-16T15:04:15;16.55;;;8.82;;
72584;SDS011;60618;40.084;32.908;2022-10-16T15:06:42;14.27;;;8.85;;
72584;SDS011;60618;40.084;32.908;2022-10-16T15:09:10;15.97;;;8.97;;
72584;SDS011;60618;40.084;32.908;2022-10-16T15:11:40;14.13;;;8.75;;
72584;SDS011;60618;40.084;32.908;2022-10-16T15:14:11;14.30;;;8.65;;
72584;SDS011;60618;40.084;32.908;2022-10-16T15:16:40;15.30;;;8.43;;
72584;SDS011;60618;40.084;32.908;2022-10-16T15:19:07;16.13;;;9.65;;
72584;SDS011;60618;40.084;32.908;2022-10-16T15:21:36;16.20;;;9.47;;
72584;SDS011;60618;40.084;32.908;2022-10-16T15:24:08;15.55;;;9.20;;
72584;SDS011;60618;40.084;32.908;2022-10-16T15:26:44;17.10;;;9.75;;
72584;SDS011;60618;40.084;32.908;2022-10-16T15:29:12;14.60;;;9.20;;
72584;SDS011;60618;40.084;32.908;2022-10-16T15:31:39;14.70;;;9.07;;
72584;SDS011;60618;40.084;32.908;2022-10-16T15:34:09;14.53;;;9.27;;
72584;SDS011;60618;40.084;32.908;2022-10-16T15:36:37;14.57;;;9.02;;
72584;SDS011;60618;40.084;32.908;2022-10-16T15:39:17;15.88;;;9.35;;
72584;SDS011;60618;40.084;32.908;2022-10-16T15:41:47;15.45;;;8.55;;
72584;SDS011;60618;40.084;32.908;2022-10-16T15:44:15;16.15;;;9.57;;
72584;SDS011;60618;40.084;32.908;2022-10-16T15:46:41;15.47;;;9.90;;
72584;SDS011;60618;40.084;32.908;2022-10-16T15:49:09;13.98;;;9.13;;
72584;SDS011;60618;40.084;32.908;2022-10-16T15:51:40;15.98;;;9.73;;
72584;SDS011;60618;40.084;32.908;2022-10-16T15:54:08;14.60;;;9.77;;
72584;SDS011;60618;40.084;32.908;2022-10-16T15:56:35;15.10;;;9.55;;
72584;SDS011;60618;40.084;32.908;2022-10-16T15:59:03;16.40;;;9.50;;
72584;SDS011;60618;40.084;32.908;2022-10-16T16:01:33;16.23;;;10.13;;
72584;SDS011;60618;40.084;32.908;2022-10-16T16:04:01;17.10;;;10.05;;
72584;SDS011;60618;40.084;32.908;2022-10-16T16:06:45;15.05;;;9.95;;
72584;SDS011;60618;40.084;32.908;2022-10-16T16:09:13;14.45;;;9.52;;
72584;SDS011;60618;40.084;32.908;2022-10-16T16:11:41;16.83;;;10.03;;
72584;SDS011;60618;40.084;32.908;2022-10-16T16:14:14;15.95;;;10.57;;
72584;SDS011;60618;40.084;32.908;2022-10-16T16:16:41;16.55;;;10.23;;
72584;SDS011;60618;40.084;32.908;2022-10-16T16:19:08;16.38;;;9.88;;
72584;SDS011;60618;40.084;32.908;2022-10-16T16:21:38;17.00;;;10.75;;
72584;SDS011;60618;40.084;32.908;2022-10-16T16:24:06;17.20;;;9.73;;
72584;SDS011;60618;40.084;32.908;2022-10-16T16:26:33;16.42;;;10.20;;
72584;SDS011;60618;40.084;32.908;2022-10-16T16:29:00;16.73;;;10.13;;
72584;SDS011;60618;40.084;32.908;2022-10-16T16:31:28;18.70;;;11.35;;
72584;SDS011;60618;40.084;32.908;2022-10-16T16:33:56;18.95;;;11.57;;
72584;SDS011;60618;40.084;32.908;2022-10-16T16:36:24;19.73;;;11.43;;
72584;SDS011;60618;40.084;32.908;2022-10-16T16:38:52;20.02;;;11.82;;
72584;SDS011;60618;40.084;32.908;2022-10-16T16:41:23;19.35;;;11.45;;
72584;SDS011;60618;40.084;32.908;2022-10-16T16:43:52;18.67;;;11.27;;
72584;SDS011;60618;40.084;32.908;2022-10-16T16:46:20;20.30;;;12.05;;